createdAt,value
2023-03-06T00:00:05.208Z,143.00
2023-03-06T00:00:56.556Z,143.00
2023-03-06T00:01:28.449Z,143.33
2023-03-06T00:02:00.145Z,143.00
2023-03-06T00:02:32.187Z,143.00
2023-03-06T00:03:04.659Z,143.00
2023-03-06T00:03:36.445Z,143.00
2023-03-06T00:04:08.619Z,142.33
2023-03-06T00:04:40.604Z,141.00
2023-03-06T00:05:13.951Z,139.33
2023-03-06T00:05:46.031Z,137.67
2023-03-06T00:06:17.793Z,137.00
2023-03-06T00:06:49.550Z,136.00
2023-03-06T00:07:21.266Z,136.00
2023-03-06T00:07:52.985Z,136.67
2023-03-06T00:08:26.980Z,137.00
2023-03-06T00:08:58.655Z,138.00
2023-03-06T00:09:30.343Z,139.67
2023-03-06T00:10:02.052Z,141.00
2023-03-06T00:10:34.797Z,141.00
2023-03-06T00:11:06.452Z,141.00
2023-03-06T00:11:38.244Z,141.00
2023-03-06T00:12:10.222Z,141.00
2023-03-06T00:12:42.765Z,142.00
2023-03-06T00:13:19.261Z,142.00
2023-03-06T00:13:51.004Z,142.00
2023-03-06T00:14:22.685Z,142.00
2023-03-06T00:14:54.396Z,143.00
2023-03-06T00:15:27.314Z,143.00
2023-03-06T00:16:01.069Z,143.33
2023-03-06T00:16:32.913Z,143.00
2023-03-06T00:17:04.718Z,143.00
2023-03-06T00:17:37.243Z,143.00
2023-03-06T00:18:09.317Z,143.00
2023-03-06T00:18:41.761Z,143.00
2023-03-06T00:19:13.527Z,143.00
2023-03-06T00:19:45.211Z,143.67
2023-03-06T00:20:17.771Z,145.33
2023-03-06T00:20:49.463Z,146.33
2023-03-06T00:21:21.183Z,147.67
2023-03-06T00:21:52.899Z,154.67
2023-03-06T00:22:24.636Z,163.67
2023-03-06T00:22:57.054Z,170.00
2023-03-06T00:23:29.184Z,174.33
2023-03-06T00:24:00.854Z,175.00
2023-03-06T00:24:32.603Z,170.00
2023-03-06T00:25:05.233Z,168.33
2023-03-06T00:25:41.738Z,167.67
2023-03-06T00:26:13.428Z,173.00
2023-03-06T00:27:03.449Z,174.67
2023-03-06T00:27:35.132Z,176.33
2023-03-06T00:28:06.833Z,178.67
2023-03-06T00:28:38.822Z,180.00
2023-03-06T00:29:10.824Z,181.33
2023-03-06T00:29:42.614Z,182.33
2023-03-06T00:30:20.383Z,183.33
2023-03-06T00:30:52.171Z,185.67
2023-03-06T00:31:23.880Z,186.00
2023-03-06T00:31:55.578Z,186.33
2023-03-06T00:32:28.598Z,187.67
2023-03-06T00:33:00.365Z,188.67
2023-03-06T00:33:32.055Z,189.33
2023-03-06T00:34:04.277Z,191.00
2023-03-06T00:34:35.977Z,193.00
2023-03-06T00:35:08.089Z,194.33
2023-03-06T00:35:40.843Z,197.00
2023-03-06T00:36:12.585Z,197.67
2023-03-06T00:36:44.298Z,198.33
2023-03-06T00:37:16.293Z,199.33
2023-03-06T00:37:48.536Z,203.33
2023-03-06T00:38:20.306Z,199.67
2023-03-06T00:38:52.004Z,197.67
2023-03-06T00:39:23.787Z,197.67
2023-03-06T00:39:55.467Z,198.00
2023-03-06T00:40:27.313Z,197.33
2023-03-06T00:40:59.148Z,197.67
2023-03-06T00:41:30.807Z,199.67
2023-03-06T00:42:02.528Z,202.33
2023-03-06T00:42:34.197Z,207.67
2023-03-06T00:43:05.954Z,209.00
2023-03-06T00:43:37.733Z,209.00
2023-03-06T00:44:09.387Z,210.00
2023-03-06T00:44:41.302Z,210.00
2023-03-06T00:45:13.335Z,211.00
2023-03-06T00:45:45.092Z,210.67
2023-03-06T00:46:16.838Z,212.00
2023-03-06T00:46:48.493Z,212.33
2023-03-06T00:47:20.237Z,211.67
2023-03-06T00:47:51.917Z,212.33
2023-03-06T00:48:23.641Z,213.00
2023-03-06T00:48:55.366Z,213.00
2023-03-06T00:49:27.328Z,213.00
2023-03-06T00:50:01.521Z,213.67
2023-03-06T00:50:34.117Z,214.33
2023-03-06T00:51:07.068Z,213.67
2023-03-06T00:51:38.768Z,213.33
2023-03-06T00:52:10.741Z,212.67
2023-03-06T00:52:42.600Z,211.00
2023-03-06T00:53:14.293Z,208.33
2023-03-06T00:53:46.048Z,205.00
2023-03-06T00:54:17.750Z,202.00
2023-03-06T00:54:49.510Z,198.67
2023-03-06T00:55:21.201Z,193.00
2023-03-06T00:55:52.975Z,188.33
2023-03-06T00:56:25.245Z,188.00
2023-03-06T00:56:56.991Z,187.67
2023-03-06T00:57:28.645Z,188.00
2023-03-06T00:58:00.335Z,186.67
2023-03-06T00:58:32.029Z,184.33
2023-03-06T00:59:03.721Z,174.33
2023-03-06T00:59:35.853Z,161.00
2023-03-06T01:00:09.128Z,148.00
2023-03-06T01:00:41.105Z,134.33
2023-03-06T01:01:13.925Z,135.00
2023-03-06T01:01:45.805Z,140.33
2023-03-06T01:02:17.540Z,138.00
2023-03-06T01:02:49.315Z,137.00
2023-03-06T01:03:22.082Z,137.00
2023-03-06T01:03:53.741Z,135.00
2023-03-06T01:04:26.019Z,135.33
2023-03-06T01:04:58.041Z,137.67
2023-03-06T01:05:31.078Z,135.67
2023-03-06T01:06:02.789Z,135.00
2023-03-06T01:06:34.473Z,135.67
2023-03-06T01:07:06.292Z,135.67
2023-03-06T01:07:38.020Z,137.67
2023-03-06T01:08:10.039Z,135.67
2023-03-06T01:08:41.724Z,133.67
2023-03-06T01:09:13.745Z,131.33
2023-03-06T01:09:45.413Z,129.67
2023-03-06T01:10:17.180Z,129.67
2023-03-06T01:10:48.933Z,130.00
2023-03-06T01:11:20.828Z,122.33
2023-03-06T01:11:52.602Z,121.00
2023-03-06T01:12:24.513Z,119.33
2023-03-06T01:12:56.309Z,120.67
2023-03-06T01:13:28.109Z,120.33
2023-03-06T01:13:59.895Z,118.33
2023-03-06T01:14:32.073Z,115.67
2023-03-06T01:15:05.210Z,117.00
2023-03-06T01:15:37.390Z,117.00
2023-03-06T01:16:14.937Z,117.67
2023-03-06T01:16:47.791Z,119.00
2023-03-06T01:17:19.473Z,116.67
2023-03-06T01:17:54.865Z,115.00
2023-03-06T01:18:26.602Z,114.00
2023-03-06T01:18:58.765Z,113.00
2023-03-06T01:19:30.740Z,113.00
2023-03-06T01:20:02.675Z,114.00
2023-03-06T01:20:34.620Z,114.67
2023-03-06T01:21:07.097Z,115.00
2023-03-06T01:21:38.989Z,115.33
2023-03-06T01:22:10.676Z,116.67
2023-03-06T01:22:42.677Z,117.00
2023-03-06T01:23:14.366Z,117.00
2023-03-06T01:23:46.200Z,117.67
2023-03-06T01:24:17.857Z,118.00
2023-03-06T01:24:49.530Z,118.33
2023-03-06T01:25:21.475Z,119.00
2023-03-06T01:25:53.179Z,119.00
2023-03-06T01:26:24.880Z,119.00
2023-03-06T01:26:56.633Z,119.00
2023-03-06T01:27:28.380Z,119.00
2023-03-06T01:28:00.118Z,119.67
2023-03-06T01:28:34.026Z,120.00
2023-03-06T01:29:06.447Z,119.67
2023-03-06T01:29:38.149Z,119.00
2023-03-06T01:30:10.251Z,119.00
2023-03-06T01:30:42.233Z,119.00
2023-03-06T01:31:14.025Z,118.00
2023-03-06T01:31:45.780Z,118.00
2023-03-06T01:32:17.628Z,118.33
2023-03-06T01:32:49.379Z,117.33
2023-03-06T01:33:21.276Z,116.00
2023-03-06T01:33:53.408Z,114.00
2023-03-06T01:34:25.145Z,111.00
2023-03-06T01:34:56.915Z,108.67
2023-03-06T01:35:28.687Z,107.33
2023-03-06T01:36:00.599Z,107.33
2023-03-06T01:36:32.318Z,107.00
2023-03-06T01:37:04.017Z,108.00
2023-03-06T01:37:37.342Z,107.67
2023-03-06T01:38:11.576Z,108.00
2023-03-06T01:38:43.570Z,109.00
2023-03-06T01:39:15.288Z,109.33
2023-03-06T01:39:47.069Z,110.00
2023-03-06T01:40:18.803Z,110.33
2023-03-06T01:40:50.500Z,110.00
2023-03-06T01:41:22.245Z,109.33
2023-03-06T01:41:54.289Z,109.00
2023-03-06T01:42:26.018Z,109.00
2023-03-06T01:42:57.674Z,109.00
2023-03-06T01:43:34.717Z,109.00
2023-03-06T01:44:06.440Z,109.00
2023-03-06T01:45:02.231Z,108.00
2023-03-06T01:45:33.891Z,107.33
2023-03-06T01:46:24.254Z,105.67
2023-03-06T01:46:55.967Z,103.33
2023-03-06T01:47:27.920Z,102.33
2023-03-06T01:47:59.585Z,102.67
2023-03-06T01:48:31.365Z,103.00
2023-03-06T01:49:12.165Z,103.00
2023-03-06T01:49:43.865Z,103.33
2023-03-06T01:50:15.958Z,104.00
2023-03-06T01:50:48.835Z,103.00
2023-03-06T01:51:21.705Z,103.00
2023-03-06T01:52:03.607Z,101.67
2023-03-06T01:52:43.369Z,100.00
2023-03-06T01:53:15.744Z,99.00
2023-03-06T01:53:50.528Z,99.00
2023-03-06T01:54:29.535Z,99.33
2023-03-06T01:55:10.739Z,98.33
2023-03-06T01:55:42.918Z,96.33
2023-03-06T01:56:15.819Z,94.67
2023-03-06T01:56:50.486Z,92.00
2023-03-06T01:57:26.804Z,90.00
2023-03-06T01:58:03.736Z,91.00
2023-03-06T01:58:36.403Z,90.00
2023-03-06T01:59:08.325Z,89.00
2023-03-06T01:59:42.618Z,85.33
2023-03-06T02:00:18.507Z,82.00
2023-03-06T02:00:50.294Z,80.33
2023-03-06T02:01:22.158Z,79.67
2023-03-06T02:01:55.306Z,79.67
2023-03-06T02:02:27.194Z,79.00
2023-03-06T02:03:10.132Z,78.00
2023-03-06T02:03:43.487Z,78.00
2023-03-06T02:04:17.236Z,78.00
2023-03-06T02:04:49.030Z,78.33
2023-03-06T02:05:21.042Z,79.00
2023-03-06T02:05:53.204Z,78.67
2023-03-06T02:06:25.198Z,78.00
2023-03-06T02:07:00.526Z,76.67
2023-03-06T02:07:33.665Z,73.00
2023-03-06T02:08:06.881Z,71.33
2023-03-06T02:08:39.743Z,72.33
2023-03-06T02:09:14.163Z,73.67
2023-03-06T02:09:46.330Z,74.00
2023-03-06T02:10:19.572Z,74.00
2023-03-06T02:11:17.658Z,74.67
2023-03-06T02:11:49.437Z,75.00
2023-03-06T02:12:23.019Z,75.67
2023-03-06T02:12:54.914Z,76.00
2023-03-06T02:13:26.776Z,76.00
2023-03-06T02:13:58.637Z,75.00
2023-03-06T02:14:30.539Z,75.00
2023-03-06T02:15:02.443Z,75.33
2023-03-06T02:15:34.172Z,76.00
2023-03-06T02:16:07.248Z,76.00
2023-03-06T02:16:41.931Z,76.00
2023-03-06T02:17:17.040Z,76.33
2023-03-06T02:17:51.420Z,77.00
2023-03-06T02:18:23.144Z,77.00
2023-03-06T02:18:55.547Z,77.00
2023-03-06T02:19:51.531Z,77.00
2023-03-06T02:20:33.633Z,77.00
2023-03-06T02:21:09.509Z,76.67
2023-03-06T02:21:41.268Z,76.00
2023-03-06T02:22:12.987Z,76.00
2023-03-06T02:23:03.157Z,76.00
2023-03-06T02:23:58.513Z,76.00
2023-03-06T02:25:03.420Z,76.00
2023-03-06T02:25:42.053Z,76.00
2023-03-06T02:26:15.020Z,75.00
2023-03-06T02:26:48.405Z,75.00
2023-03-06T02:27:21.247Z,75.00
2023-03-06T02:27:52.923Z,75.00
2023-03-06T02:28:25.157Z,75.00
2023-03-06T02:28:59.278Z,75.00
2023-03-06T02:29:31.813Z,74.33
2023-03-06T02:30:09.513Z,73.67
2023-03-06T02:30:45.417Z,73.00
2023-03-06T02:31:27.375Z,73.00
2023-03-06T02:31:59.245Z,73.00
2023-03-06T02:32:31.054Z,73.00
2023-03-06T02:33:04.357Z,73.00
2023-03-06T02:33:36.101Z,73.00
2023-03-06T02:34:17.058Z,73.00
2023-03-06T02:34:55.990Z,73.00
2023-03-06T02:35:31.405Z,72.67
2023-03-06T02:36:06.091Z,72.00
2023-03-06T02:36:43.346Z,72.00
2023-03-06T02:37:15.253Z,72.00
2023-03-06T02:37:47.084Z,71.67
2023-03-06T02:38:22.544Z,71.33
2023-03-06T02:38:54.585Z,71.67
2023-03-06T02:39:31.818Z,71.67
2023-03-06T02:40:09.459Z,71.00
2023-03-06T02:40:44.785Z,71.67
2023-03-06T02:41:16.742Z,72.00
2023-03-06T02:41:48.594Z,72.00
2023-03-06T02:42:24.348Z,72.00
2023-03-06T02:42:58.505Z,72.00
2023-03-06T02:43:35.036Z,72.00
2023-03-06T02:44:06.748Z,71.00
2023-03-06T02:44:38.663Z,70.33
2023-03-06T02:45:14.224Z,69.33
2023-03-06T02:45:48.718Z,68.00
2023-03-06T02:46:20.734Z,67.67
2023-03-06T02:46:52.466Z,67.00
2023-03-06T02:47:24.154Z,67.00
2023-03-06T02:47:55.834Z,67.00
2023-03-06T02:48:27.657Z,66.67
2023-03-06T02:48:59.418Z,66.00
2023-03-06T02:49:31.102Z,66.00
2023-03-06T02:50:02.846Z,65.00
2023-03-06T02:50:34.819Z,65.00
2023-03-06T02:51:06.898Z,65.00
2023-03-06T02:51:38.587Z,64.33
2023-03-06T02:52:10.299Z,64.33
2023-03-06T02:52:41.957Z,65.00
2023-03-06T02:53:16.773Z,65.00
2023-03-06T02:53:48.454Z,65.00
2023-03-06T02:54:20.158Z,65.00
2023-03-06T02:54:51.892Z,65.00
2023-03-06T02:55:23.970Z,65.00
2023-03-06T02:55:55.685Z,65.00
2023-03-06T02:56:28.512Z,65.00
2023-03-06T02:57:00.203Z,64.67
2023-03-06T02:57:31.861Z,64.00
2023-03-06T02:58:04.073Z,64.00
2023-03-06T02:58:35.774Z,64.00
2023-03-06T02:59:07.520Z,64.00
2023-03-06T02:59:39.274Z,64.00
2023-03-06T03:00:11.819Z,64.00
2023-03-06T03:00:43.546Z,64.00
2023-03-06T03:01:15.412Z,64.00
2023-03-06T03:01:47.878Z,64.00
2023-03-06T03:02:19.694Z,63.33
2023-03-06T03:02:51.635Z,63.00
2023-03-06T03:03:23.373Z,63.67
2023-03-06T03:03:57.120Z,63.67
2023-03-06T03:04:28.839Z,64.00
2023-03-06T03:05:00.558Z,64.00
2023-03-06T03:05:32.689Z,64.00
2023-03-06T03:06:06.008Z,64.00
2023-03-06T03:06:37.754Z,64.00
2023-03-06T03:07:09.455Z,64.00
2023-03-06T03:07:41.362Z,63.33
2023-03-06T03:08:13.288Z,63.00
2023-03-06T03:08:45.015Z,63.00
2023-03-06T03:09:16.698Z,63.00
2023-03-06T03:09:48.464Z,63.67
2023-03-06T03:10:20.305Z,64.00
2023-03-06T03:10:52.034Z,64.00
2023-03-06T03:11:23.706Z,64.00
2023-03-06T03:11:55.818Z,64.00
2023-03-06T03:12:28.816Z,64.00
2023-03-06T03:13:00.773Z,64.00
2023-03-06T03:13:32.826Z,64.00
2023-03-06T03:14:04.562Z,63.00
2023-03-06T03:14:36.360Z,63.00
2023-03-06T03:15:10.121Z,63.00
2023-03-06T03:15:41.976Z,62.00
2023-03-06T03:16:18.310Z,62.00
2023-03-06T03:16:50.062Z,61.00
2023-03-06T03:17:22.885Z,61.00
2023-03-06T03:17:54.597Z,60.67
2023-03-06T03:18:26.528Z,60.33
2023-03-06T03:18:58.212Z,61.00
2023-03-06T03:19:30.267Z,61.00
2023-03-06T03:20:01.972Z,61.00
2023-03-06T03:20:33.769Z,61.00
2023-03-06T03:21:10.468Z,61.00
2023-03-06T03:21:42.261Z,61.00
2023-03-06T03:22:13.991Z,61.00
2023-03-06T03:22:49.988Z,61.00
2023-03-06T03:23:22.220Z,61.00
2023-03-06T03:23:53.911Z,62.00
2023-03-06T03:24:25.867Z,62.00
2023-03-06T03:24:57.672Z,62.67
2023-03-06T03:25:29.533Z,63.00
2023-03-06T03:26:13.909Z,63.67
2023-03-06T03:26:45.660Z,64.67
2023-03-06T03:27:17.401Z,65.00
2023-03-06T03:27:49.099Z,65.33
2023-03-06T03:28:20.849Z,66.00
2023-03-06T03:28:52.531Z,66.67
2023-03-06T03:29:24.835Z,67.00
2023-03-06T03:30:00.552Z,67.67
2023-03-06T03:30:32.287Z,68.67
2023-03-06T03:31:09.431Z,71.00
2023-03-06T03:31:41.104Z,72.00
2023-03-06T03:32:12.825Z,72.00
2023-03-06T03:32:44.576Z,72.00
2023-03-06T03:33:16.305Z,71.00
2023-03-06T03:33:47.991Z,71.00
2023-03-06T03:34:19.648Z,71.00
2023-03-06T03:34:51.673Z,71.00
2023-03-06T03:35:23.409Z,71.00
2023-03-06T03:35:59.521Z,71.00
2023-03-06T03:36:31.294Z,71.00
2023-03-06T03:37:03.027Z,71.00
2023-03-06T03:37:34.897Z,71.00
2023-03-06T03:38:06.574Z,71.00
2023-03-06T03:38:38.274Z,71.00
2023-03-06T03:39:10.311Z,71.00
2023-03-06T03:39:42.106Z,71.00
2023-03-06T03:40:13.932Z,71.00
2023-03-06T03:40:45.680Z,71.00
2023-03-06T03:41:17.376Z,71.00
2023-03-06T03:41:49.148Z,72.33
2023-03-06T03:42:20.952Z,74.00
2023-03-06T03:42:52.796Z,75.00
2023-03-06T03:43:24.486Z,75.00
2023-03-06T03:43:56.164Z,75.00
2023-03-06T03:44:27.855Z,75.00
2023-03-06T03:44:59.583Z,75.00
2023-03-06T03:45:31.296Z,74.00
2023-03-06T03:46:03.120Z,74.00
2023-03-06T03:46:34.943Z,74.67
2023-03-06T03:47:06.860Z,78.67
2023-03-06T03:47:38.792Z,107.67
2023-03-06T03:48:10.661Z,111.33
2023-03-06T03:48:42.481Z,103.33
2023-03-06T03:49:15.131Z,96.00
2023-03-06T03:49:46.840Z,93.00
2023-03-06T03:50:18.960Z,91.00
2023-03-06T03:50:50.700Z,87.67
2023-03-06T03:51:22.704Z,83.67
2023-03-06T03:51:54.381Z,79.67
2023-03-06T03:52:26.317Z,76.33
2023-03-06T03:52:58.018Z,74.00
2023-03-06T03:53:29.717Z,75.67
2023-03-06T03:54:01.513Z,105.67
2023-03-06T03:54:33.847Z,108.67
2023-03-06T03:55:06.147Z,98.00
2023-03-06T03:55:37.932Z,95.00
2023-03-06T03:56:10.662Z,93.33
2023-03-06T03:56:42.453Z,91.67
2023-03-06T03:57:14.242Z,89.33
2023-03-06T03:57:45.983Z,85.67
2023-03-06T03:58:17.670Z,82.33
2023-03-06T03:58:49.425Z,80.00
2023-03-06T03:59:21.226Z,78.67
2023-03-06T03:59:53.174Z,77.67
2023-03-06T04:00:24.950Z,76.67
2023-03-06T04:00:56.705Z,75.67
2023-03-06T04:01:28.498Z,75.00
2023-03-06T04:02:00.286Z,75.00
2023-03-06T04:02:31.963Z,75.00
2023-03-06T04:03:03.788Z,75.33
2023-03-06T04:03:36.023Z,80.67
2023-03-06T04:04:08.382Z,84.33
2023-03-06T04:04:40.145Z,88.67
2023-03-06T04:05:14.768Z,90.67
2023-03-06T04:05:46.666Z,91.00
2023-03-06T04:06:18.510Z,92.00
2023-03-06T04:06:50.203Z,103.67
2023-03-06T04:07:21.951Z,101.33
2023-03-06T04:07:53.675Z,98.00
2023-03-06T04:08:26.762Z,96.67
2023-03-06T04:08:59.116Z,95.33
2023-03-06T04:09:30.820Z,94.33
2023-03-06T04:10:02.501Z,92.67
2023-03-06T04:10:34.489Z,91.00
2023-03-06T04:11:06.766Z,89.67
2023-03-06T04:11:38.885Z,88.67
2023-03-06T04:12:10.689Z,87.33
2023-03-06T04:12:42.607Z,85.00
2023-03-06T04:13:14.452Z,84.00
2023-03-06T04:13:46.364Z,82.00
2023-03-06T04:14:18.069Z,80.00
2023-03-06T04:14:50.040Z,77.67
2023-03-06T04:15:21.729Z,76.33
2023-03-06T04:15:54.617Z,75.33
2023-03-06T04:16:26.426Z,74.33
2023-03-06T04:16:58.195Z,75.00
2023-03-06T04:17:29.944Z,74.00
2023-03-06T04:18:01.747Z,73.33
2023-03-06T04:18:33.504Z,73.00
2023-03-06T04:19:05.224Z,73.00
2023-03-06T04:19:36.952Z,73.00
2023-03-06T04:20:09.425Z,73.00
2023-03-06T04:20:41.324Z,73.67
2023-03-06T04:21:13.372Z,74.00
2023-03-06T04:21:45.169Z,74.00
2023-03-06T04:22:16.820Z,74.00
2023-03-06T04:22:48.744Z,74.33
2023-03-06T04:23:20.893Z,75.00
2023-03-06T04:23:52.558Z,75.33
2023-03-06T04:24:25.128Z,76.33
2023-03-06T04:24:56.814Z,78.00
2023-03-06T04:25:29.575Z,79.33
2023-03-06T04:26:01.333Z,81.00
2023-03-06T04:26:33.062Z,81.67
2023-03-06T04:27:05.109Z,85.33
2023-03-06T04:27:38.172Z,91.67
2023-03-06T04:28:10.249Z,92.00
2023-03-06T04:28:41.972Z,93.00
2023-03-06T04:29:13.642Z,93.00
2023-03-06T04:29:45.364Z,94.00
2023-03-06T04:30:17.121Z,92.67
2023-03-06T04:30:48.910Z,92.00
2023-03-06T04:31:20.699Z,91.67
2023-03-06T04:31:52.438Z,91.00
2023-03-06T04:32:24.421Z,91.33
2023-03-06T04:32:56.093Z,96.33
2023-03-06T04:33:27.921Z,103.33
2023-03-06T04:33:59.717Z,106.00
2023-03-06T04:34:31.591Z,112.67
2023-03-06T04:35:03.339Z,118.67
2023-03-06T04:35:35.748Z,109.33
2023-03-06T04:36:07.792Z,105.33
2023-03-06T04:36:41.545Z,100.33
2023-03-06T04:37:25.092Z,94.33
2023-03-06T04:37:57.269Z,94.00
2023-03-06T04:38:28.964Z,93.00
2023-03-06T04:39:02.096Z,93.00
2023-03-06T04:39:33.800Z,92.00
2023-03-06T04:40:06.022Z,92.00
2023-03-06T04:40:38.247Z,92.00
2023-03-06T04:41:10.066Z,92.00
2023-03-06T04:41:42.704Z,92.00
2023-03-06T04:42:14.734Z,91.00
2023-03-06T04:42:46.423Z,91.00
2023-03-06T04:43:18.242Z,91.00
2023-03-06T04:43:50.359Z,91.00
2023-03-06T04:44:22.059Z,90.00
2023-03-06T04:44:53.785Z,90.00
2023-03-06T04:45:27.178Z,91.33
2023-03-06T04:45:59.008Z,92.33
2023-03-06T04:46:30.702Z,93.67
2023-03-06T04:47:02.390Z,96.00
2023-03-06T04:47:34.085Z,99.67
2023-03-06T04:48:06.083Z,101.33
2023-03-06T04:48:38.016Z,100.67
2023-03-06T04:49:09.990Z,100.00
2023-03-06T04:49:43.188Z,100.00
2023-03-06T04:50:16.673Z,99.00
2023-03-06T04:50:48.425Z,99.67
2023-03-06T04:51:20.164Z,134.67
2023-03-06T04:51:51.842Z,219.33
2023-03-06T04:52:23.557Z,184.00
2023-03-06T04:52:55.294Z,151.33
2023-03-06T04:53:26.996Z,131.67
2023-03-06T04:53:58.776Z,127.33
2023-03-06T04:54:30.529Z,125.67
2023-03-06T04:55:08.536Z,124.00
2023-03-06T04:55:40.232Z,118.67
2023-03-06T04:56:11.881Z,112.67
2023-03-06T04:56:43.557Z,105.33
2023-03-06T04:57:16.113Z,102.33
2023-03-06T04:57:48.103Z,101.67
2023-03-06T04:58:20.882Z,100.33
2023-03-06T04:58:52.538Z,97.67
2023-03-06T04:59:24.214Z,93.00
2023-03-06T04:59:55.898Z,90.33
2023-03-06T05:00:30.686Z,91.67
2023-03-06T05:01:03.103Z,93.67
2023-03-06T05:01:34.847Z,94.00
2023-03-06T05:02:06.605Z,94.33
2023-03-06T05:02:38.305Z,210.67
2023-03-06T05:03:12.598Z,335.00
2023-03-06T05:03:44.283Z,444.67
2023-03-06T05:04:15.997Z,482.67
2023-03-06T05:04:47.676Z,422.00
2023-03-06T05:05:19.443Z,422.33
2023-03-06T05:05:51.116Z,458.00
2023-03-06T05:06:22.823Z,476.00
2023-03-06T05:06:54.499Z,478.67
2023-03-06T05:07:26.260Z,481.00
2023-03-06T05:07:58.006Z,479.67
2023-03-06T05:08:29.787Z,443.33
2023-03-06T05:09:01.500Z,323.67
2023-03-06T05:09:34.570Z,269.67
2023-03-06T05:10:07.158Z,243.67
2023-03-06T05:10:38.871Z,214.33
2023-03-06T05:11:10.591Z,173.33
2023-03-06T05:11:42.290Z,153.67
2023-03-06T05:12:24.406Z,142.00
2023-03-06T05:12:56.090Z,131.67
2023-03-06T05:13:28.356Z,125.33
2023-03-06T05:14:00.045Z,123.33
2023-03-06T05:14:33.100Z,120.33
2023-03-06T05:15:07.527Z,118.00
2023-03-06T05:15:42.164Z,118.67
2023-03-06T05:16:14.036Z,124.00
2023-03-06T05:16:45.920Z,123.00
2023-03-06T05:17:17.826Z,120.67
2023-03-06T05:17:49.682Z,117.67
2023-03-06T05:18:21.945Z,119.67
2023-03-06T05:18:53.685Z,121.33
2023-03-06T05:19:25.445Z,118.00
2023-03-06T05:19:57.143Z,107.33
2023-03-06T05:20:28.884Z,107.33
2023-03-06T05:21:00.877Z,100.67
2023-03-06T05:21:32.567Z,100.67
2023-03-06T05:22:04.259Z,110.00
2023-03-06T05:22:36.159Z,292.33
2023-03-06T05:23:07.861Z,447.00
2023-03-06T05:23:39.746Z,484.67
2023-03-06T05:24:11.545Z,491.67
2023-03-06T05:24:43.278Z,494.00
2023-03-06T05:25:16.364Z,495.00
2023-03-06T05:25:48.053Z,493.00
2023-03-06T05:26:20.054Z,493.67
2023-03-06T05:26:51.864Z,480.67
2023-03-06T05:27:23.628Z,459.33
2023-03-06T05:27:55.373Z,410.67
2023-03-06T05:28:28.703Z,346.67
2023-03-06T05:29:00.519Z,286.33
2023-03-06T05:29:32.209Z,232.33
2023-03-06T05:30:04.469Z,202.67
2023-03-06T05:30:36.283Z,183.00
2023-03-06T05:31:08.510Z,173.67
2023-03-06T05:31:40.249Z,156.33
2023-03-06T05:32:12.107Z,152.00
2023-03-06T05:32:44.192Z,153.00
2023-03-06T05:33:16.047Z,160.67
2023-03-06T05:33:47.742Z,197.67
2023-03-06T05:34:19.439Z,198.67
2023-03-06T05:34:51.154Z,191.33
2023-03-06T05:35:23.657Z,185.67
2023-03-06T05:35:55.537Z,184.33
2023-03-06T05:36:27.231Z,181.33
2023-03-06T05:37:01.813Z,197.00
2023-03-06T05:37:33.706Z,212.67
2023-03-06T05:38:05.439Z,201.33
2023-03-06T05:38:37.203Z,195.00
2023-03-06T05:39:09.597Z,184.67
2023-03-06T05:39:41.452Z,180.67
2023-03-06T05:40:14.512Z,172.00
2023-03-06T05:40:46.363Z,165.00
2023-03-06T05:41:18.148Z,174.33
2023-03-06T05:41:49.846Z,174.33
2023-03-06T05:42:21.637Z,171.67
2023-03-06T05:42:53.403Z,162.67
2023-03-06T05:43:25.110Z,159.00
2023-03-06T05:43:57.054Z,155.67
2023-03-06T05:44:36.018Z,149.33
2023-03-06T05:45:08.336Z,146.00
2023-03-06T05:45:40.814Z,166.00
2023-03-06T05:46:12.668Z,174.67
2023-03-06T05:46:44.449Z,172.33
2023-03-06T05:47:16.204Z,171.67
2023-03-06T05:47:47.965Z,168.33
2023-03-06T05:48:19.654Z,155.67
2023-03-06T05:48:54.125Z,166.00
2023-03-06T05:49:26.692Z,198.67
2023-03-06T05:49:58.713Z,398.00
2023-03-06T05:50:30.398Z,408.67
2023-03-06T05:51:03.535Z,337.00
2023-03-06T05:51:35.265Z,279.00
2023-03-06T05:52:08.161Z,257.33
2023-03-06T05:52:40.166Z,250.00
2023-03-06T05:53:11.966Z,276.00
2023-03-06T05:53:43.754Z,384.33
2023-03-06T05:54:15.508Z,351.67
2023-03-06T05:54:51.256Z,293.00
2023-03-06T05:55:24.475Z,267.33
2023-03-06T05:56:01.443Z,247.67
2023-03-06T05:56:33.890Z,217.67
2023-03-06T05:57:06.594Z,190.33
2023-03-06T05:57:38.418Z,187.33
2023-03-06T05:58:10.264Z,201.67
2023-03-06T05:58:42.083Z,200.00
2023-03-06T05:59:13.764Z,190.67
2023-03-06T05:59:46.487Z,185.33
2023-03-06T06:00:18.914Z,181.67
2023-03-06T06:00:52.142Z,187.33
2023-03-06T06:01:25.450Z,203.33
2023-03-06T06:01:57.865Z,208.67
2023-03-06T06:02:29.668Z,201.33
2023-03-06T06:03:02.243Z,190.67
2023-03-06T06:03:33.936Z,185.00
2023-03-06T06:04:05.660Z,179.67
2023-03-06T06:04:37.342Z,177.67
2023-03-06T06:05:12.904Z,181.00
2023-03-06T06:05:44.892Z,172.33
2023-03-06T06:06:16.686Z,146.67
2023-03-06T06:06:52.731Z,130.33
2023-03-06T06:07:24.419Z,126.33
2023-03-06T06:07:56.143Z,130.00
2023-03-06T06:08:27.884Z,134.00
2023-03-06T06:09:01.110Z,134.00
2023-03-06T06:09:32.884Z,134.67
2023-03-06T06:10:06.780Z,128.67
2023-03-06T06:10:39.581Z,125.00
2023-03-06T06:11:13.116Z,116.67
2023-03-06T06:11:45.931Z,106.67
2023-03-06T06:12:21.741Z,110.00
2023-03-06T06:12:53.414Z,128.67
2023-03-06T06:13:25.113Z,230.33
2023-03-06T06:13:56.869Z,197.33
2023-03-06T06:14:29.400Z,203.33
2023-03-06T06:15:01.170Z,188.00
2023-03-06T06:15:33.868Z,184.33
2023-03-06T06:16:22.689Z,180.00
2023-03-06T06:16:54.903Z,166.33
2023-03-06T06:17:26.648Z,203.33
2023-03-06T06:17:58.518Z,212.67
2023-03-06T06:18:31.251Z,199.33
2023-03-06T06:19:03.178Z,191.33
2023-03-06T06:19:35.247Z,189.00
2023-03-06T06:20:07.654Z,186.33
2023-03-06T06:20:39.621Z,174.67
2023-03-06T06:21:13.462Z,158.00
2023-03-06T06:21:59.025Z,153.67
2023-03-06T06:22:33.834Z,143.00
2023-03-06T06:23:06.531Z,140.33
2023-03-06T06:23:38.449Z,138.33
2023-03-06T06:24:10.285Z,133.33
2023-03-06T06:24:42.290Z,131.00
2023-03-06T06:25:14.840Z,122.67
2023-03-06T06:25:46.680Z,126.00
2023-03-06T06:26:18.359Z,125.33
2023-03-06T06:26:52.080Z,125.00
2023-03-06T06:27:23.774Z,125.00
2023-03-06T06:27:56.683Z,126.33
2023-03-06T06:28:29.726Z,127.67
2023-03-06T06:29:03.438Z,130.33
2023-03-06T06:29:35.634Z,132.33
2023-03-06T06:30:10.823Z,130.33
2023-03-06T06:30:43.082Z,128.33
2023-03-06T06:31:15.166Z,128.67
2023-03-06T06:31:54.151Z,128.67
2023-03-06T06:32:27.402Z,125.67
2023-03-06T06:33:00.028Z,122.33
2023-03-06T06:33:32.363Z,123.33
2023-03-06T06:34:09.371Z,123.67
2023-03-06T06:34:41.058Z,122.33
2023-03-06T06:35:12.825Z,122.00
2023-03-06T06:35:44.526Z,120.67
2023-03-06T06:36:18.527Z,121.00
2023-03-06T06:36:53.529Z,122.67
2023-03-06T06:37:26.160Z,116.67
2023-03-06T06:37:57.904Z,115.00
2023-03-06T06:38:29.596Z,164.00
2023-03-06T06:39:01.635Z,224.00
2023-03-06T06:39:33.371Z,280.67
2023-03-06T06:40:05.987Z,269.67
2023-03-06T06:40:37.645Z,221.67
2023-03-06T06:41:38.777Z,191.33
2023-03-06T06:42:28.156Z,177.00
2023-03-06T06:42:56.579Z,168.00
2023-03-06T06:43:28.418Z,162.00
2023-03-06T06:44:00.957Z,161.00
2023-03-06T06:44:32.634Z,161.67
2023-03-06T06:45:05.432Z,163.00
2023-03-06T06:45:37.677Z,164.00
2023-03-06T06:46:38.816Z,173.67
2023-03-06T06:47:24.014Z,177.67
2023-03-06T06:47:52.682Z,174.67
2023-03-06T06:48:24.626Z,168.33
2023-03-06T06:48:56.302Z,158.00
2023-03-06T06:49:28.214Z,145.67
2023-03-06T06:50:00.071Z,138.33
2023-03-06T06:50:32.027Z,135.00
2023-03-06T06:51:04.510Z,129.33
2023-03-06T06:51:37.644Z,129.67
2023-03-06T06:52:10.403Z,130.33
2023-03-06T06:52:42.280Z,128.33
2023-03-06T06:53:14.409Z,127.67
2023-03-06T06:53:46.169Z,125.67
2023-03-06T06:54:18.803Z,122.00
2023-03-06T06:54:50.907Z,127.67
2023-03-06T06:55:25.458Z,131.33
2023-03-06T06:55:59.429Z,132.00